createdAt,value
2017-09-04T00:01:12.056Z,13.80
2017-09-04T00:03:38.376Z,13.70
2017-09-04T00:06:04.788Z,13.70
2017-09-04T00:08:31.153Z,13.70
2017-09-04T00:10:57.595Z,13.70
2017-09-04T00:13:23.977Z,13.70
2017-09-04T00:15:50.372Z,13.70
2017-09-04T00:18:17.781Z,13.70
2017-09-04T00:20:44.208Z,13.70
2017-09-04T00:23:10.545Z,13.70
2017-09-04T00:25:36.888Z,13.80
2017-09-04T00:28:03.252Z,13.80
2017-09-04T00:30:29.615Z,13.80
2017-09-04T00:32:55.983Z,13.70
2017-09-04T00:35:22.322Z,13.70
2017-09-04T00:37:48.701Z,13.70
2017-09-04T00:40:29.958Z,13.70
2017-09-04T00:42:56.401Z,13.60
2017-09-04T00:45:22.932Z,13.60
2017-09-04T00:47:49.316Z,13.60
2017-09-04T00:50:15.703Z,13.60
2017-09-04T00:52:42.107Z,13.60
2017-09-04T00:55:08.533Z,13.60
2017-09-04T00:57:35.016Z,13.60
2017-09-04T01:00:01.422Z,13.60
2017-09-04T01:02:27.850Z,13.60
2017-09-04T01:04:54.196Z,13.50
2017-09-04T01:07:20.552Z,13.50
2017-09-04T01:09:46.974Z,13.50
2017-09-04T01:12:13.486Z,13.50
2017-09-04T01:14:39.909Z,13.50
2017-09-04T01:17:06.327Z,13.50
2017-09-04T01:19:32.773Z,13.50
2017-09-04T01:21:59.176Z,13.50
2017-09-04T01:24:25.531Z,13.50
2017-09-04T01:26:51.937Z,13.50
2017-09-04T01:29:18.291Z,13.50
2017-09-04T01:31:44.638Z,13.50
2017-09-04T01:34:11.068Z,13.50
2017-09-04T01:36:37.477Z,13.40
2017-09-04T01:39:03.884Z,13.40
2017-09-04T01:41:30.238Z,13.40
2017-09-04T01:43:56.597Z,13.40
2017-09-04T01:46:22.907Z,13.40
2017-09-04T01:48:49.307Z,13.40
2017-09-04T01:51:15.790Z,13.40
2017-09-04T01:53:42.144Z,13.40
2017-09-04T01:56:08.579Z,13.40
2017-09-04T01:58:34.955Z,13.40
2017-09-04T02:01:01.272Z,13.40
2017-09-04T02:03:27.692Z,13.40
2017-09-04T02:05:54.114Z,13.40
2017-09-04T02:08:20.497Z,13.40
2017-09-04T02:10:46.844Z,13.40
2017-09-04T02:13:13.217Z,13.30
2017-09-04T02:15:39.812Z,13.40
2017-09-04T02:18:06.153Z,13.40
2017-09-04T02:20:32.511Z,13.40
2017-09-04T02:22:58.823Z,13.40
2017-09-04T02:25:25.190Z,13.40
2017-09-04T02:27:51.914Z,13.40
2017-09-04T02:30:18.274Z,13.40
2017-09-04T02:32:44.690Z,13.50
2017-09-04T02:35:11.015Z,13.50
2017-09-04T02:37:37.327Z,13.40
2017-09-04T02:40:03.941Z,13.40
2017-09-04T02:42:30.363Z,13.40
2017-09-04T02:44:56.947Z,13.40
2017-09-04T02:47:23.270Z,13.40
2017-09-04T02:49:49.652Z,13.40
2017-09-04T02:52:15.970Z,13.40
2017-09-04T02:54:42.383Z,13.40
2017-09-04T02:57:08.903Z,13.40
2017-09-04T02:59:35.342Z,13.40
2017-09-04T03:02:01.740Z,13.40
2017-09-04T03:04:28.081Z,13.40
2017-09-04T03:06:54.484Z,13.40
2017-09-04T03:09:20.855Z,13.40
2017-09-04T03:11:47.278Z,13.40
2017-09-04T03:14:13.706Z,13.40
2017-09-04T03:16:40.219Z,13.40
2017-09-04T03:19:06.799Z,13.40
2017-09-04T03:21:33.186Z,13.40
2017-09-04T03:23:59.623Z,13.40
2017-09-04T03:26:26.109Z,13.40
2017-09-04T03:28:52.649Z,13.40
2017-09-04T03:31:19.082Z,13.40
2017-09-04T03:33:45.471Z,13.40
2017-09-04T03:36:11.925Z,13.40
2017-09-04T03:38:38.337Z,13.50
2017-09-04T03:41:04.760Z,13.40
2017-09-04T03:43:31.249Z,13.40
2017-09-04T03:45:57.662Z,13.40
2017-09-04T03:48:24.183Z,13.30
2017-09-04T03:50:50.623Z,13.30
2017-09-04T03:53:17.016Z,13.20
2017-09-04T03:55:43.458Z,13.20
2017-09-04T03:58:09.895Z,13.20
2017-09-04T04:00:36.307Z,13.20
2017-09-04T04:03:02.834Z,13.20
2017-09-04T04:05:29.238Z,13.20
2017-09-04T04:07:55.657Z,13.20
2017-09-04T04:10:22.021Z,13.20
2017-09-04T04:12:48.436Z,13.20
2017-09-04T04:15:14.958Z,13.10
2017-09-04T04:17:41.323Z,13.20
2017-09-04T04:20:07.707Z,13.20
2017-09-04T04:22:34.090Z,13.10
2017-09-04T04:25:00.471Z,13.10
2017-09-04T04:27:26.800Z,13.10
2017-09-04T04:29:53.132Z,13.10
2017-09-04T04:32:19.588Z,13.10
2017-09-04T04:34:45.984Z,13.10
2017-09-04T04:37:12.319Z,13.10
2017-09-04T04:39:38.774Z,13.10
2017-09-04T04:42:05.138Z,13.10
2017-09-04T04:44:31.501Z,13.10
2017-09-04T04:46:57.879Z,13.00
2017-09-04T04:49:24.302Z,13.10
2017-09-04T04:51:50.631Z,13.00
2017-09-04T04:54:17.034Z,13.00
2017-09-04T04:56:43.357Z,13.00
2017-09-04T04:59:09.938Z,13.00
2017-09-04T05:01:36.284Z,13.00
2017-09-04T05:04:02.724Z,13.00
2017-09-04T05:06:29.174Z,13.00
2017-09-04T05:08:55.495Z,13.00
2017-09-04T05:11:21.810Z,13.00
2017-09-04T05:13:48.310Z,13.00
2017-09-04T05:16:14.654Z,13.00
2017-09-04T05:18:40.977Z,13.00
2017-09-04T05:21:07.400Z,13.00
2017-09-04T05:23:33.745Z,13.00
2017-09-04T05:26:01.006Z,13.10
2017-09-04T05:28:27.354Z,13.10
2017-09-04T05:30:53.819Z,13.10
2017-09-04T05:33:20.398Z,13.10
2017-09-04T05:35:46.730Z,13.10
2017-09-04T05:38:13.261Z,13.20
2017-09-04T05:40:39.620Z,13.20
2017-09-04T05:43:05.968Z,13.20
2017-09-04T05:45:32.393Z,13.20
2017-09-04T05:47:58.879Z,13.30
2017-09-04T05:50:25.332Z,13.30
2017-09-04T05:52:51.735Z,13.40
2017-09-04T05:55:18.071Z,13.40
2017-09-04T05:57:44.453Z,13.40
2017-09-04T06:00:10.818Z,13.40
2017-09-04T06:02:37.177Z,13.40
2017-09-04T06:05:03.527Z,13.50
2017-09-04T06:07:29.909Z,13.50
2017-09-04T06:09:56.339Z,13.60
2017-09-04T06:12:22.800Z,13.60
2017-09-04T06:14:49.189Z,13.70
2017-09-04T06:17:15.600Z,13.70
2017-09-04T06:19:41.911Z,13.70
2017-09-04T06:22:08.228Z,13.80
2017-09-04T06:24:34.614Z,13.80
2017-09-04T06:27:00.919Z,13.90
2017-09-04T06:29:27.286Z,13.90
2017-09-04T06:31:53.637Z,14.00
2017-09-04T06:34:19.986Z,14.00
2017-09-04T06:36:46.359Z,14.10
2017-09-04T06:39:12.760Z,14.20
2017-09-04T06:41:39.111Z,14.20
2017-09-04T06:44:05.488Z,14.30
2017-09-04T06:46:31.811Z,14.30
2017-09-04T06:48:58.176Z,14.40
2017-09-04T06:51:24.994Z,14.50
2017-09-04T06:53:51.349Z,14.50
2017-09-04T06:56:17.754Z,14.60
2017-09-04T06:58:44.071Z,14.60
2017-09-04T07:01:10.389Z,14.70
2017-09-04T07:03:36.756Z,14.80
2017-09-04T07:06:03.134Z,14.80
2017-09-04T07:08:29.444Z,14.90
2017-09-04T07:10:55.787Z,15.00
2017-09-04T07:13:22.211Z,15.20
2017-09-04T07:15:48.559Z,15.20
2017-09-04T07:18:14.959Z,15.30
2017-09-04T07:20:41.279Z,15.40
2017-09-04T07:23:07.634Z,15.50
2017-09-04T07:25:33.997Z,15.60
2017-09-04T07:28:00.400Z,15.70
2017-09-04T07:30:26.793Z,15.80
2017-09-04T07:32:53.148Z,15.90
2017-09-04T07:35:19.471Z,16.00
2017-09-04T07:37:45.897Z,16.10
2017-09-04T07:40:12.219Z,16.20
2017-09-04T07:42:38.537Z,16.30
2017-09-04T07:45:04.942Z,16.40
2017-09-04T07:47:31.288Z,16.50
2017-09-04T07:49:57.876Z,16.60
2017-09-04T07:52:24.262Z,16.70
2017-09-04T07:54:50.583Z,16.70
2017-09-04T07:57:16.895Z,16.80
2017-09-04T07:59:43.256Z,16.90
2017-09-04T08:02:09.576Z,17.00
2017-09-04T08:04:35.963Z,17.00
2017-09-04T08:07:02.392Z,17.10
2017-09-04T08:09:28.743Z,17.20
2017-09-04T08:11:55.227Z,17.30
2017-09-04T08:14:21.647Z,17.40
2017-09-04T08:16:47.963Z,17.40
2017-09-04T08:19:14.315Z,17.50
2017-09-04T08:21:40.624Z,17.60
2017-09-04T08:24:06.976Z,17.70
2017-09-04T08:26:33.339Z,17.80
2017-09-04T08:28:59.655Z,17.90
2017-09-04T08:31:26.055Z,17.90
2017-09-04T08:33:52.431Z,18.00
2017-09-04T08:36:18.764Z,18.10
2017-09-04T08:38:45.145Z,18.10
2017-09-04T08:41:11.513Z,18.20
2017-09-04T08:43:37.890Z,18.30
2017-09-04T08:46:04.996Z,18.40
2017-09-04T08:48:31.410Z,18.40
2017-09-04T08:50:57.815Z,18.50
2017-09-04T08:53:24.228Z,18.60
2017-09-04T08:55:50.560Z,18.70
2017-09-04T08:58:23.999Z,18.70
2017-09-04T09:00:50.400Z,18.80
2017-09-04T09:03:16.752Z,18.90
2017-09-04T09:05:43.159Z,19.00
2017-09-04T09:08:09.599Z,19.10
2017-09-04T09:10:35.948Z,19.20
2017-09-04T09:13:02.420Z,19.30
2017-09-04T09:15:29.767Z,19.30
2017-09-04T09:17:56.146Z,19.40
2017-09-04T09:20:22.510Z,19.40
2017-09-04T09:22:48.871Z,19.50
2017-09-04T09:25:15.256Z,19.50
2017-09-04T09:27:41.711Z,19.60
2017-09-04T09:30:08.088Z,19.70
2017-09-04T09:32:34.477Z,19.70
2017-09-04T09:35:00.928Z,19.80
2017-09-04T09:37:27.300Z,19.80
2017-09-04T09:39:53.695Z,19.90
2017-09-04T09:42:20.192Z,19.90
2017-09-04T09:44:46.572Z,19.90
2017-09-04T09:47:13.054Z,20.10
2017-09-04T09:49:39.464Z,20.00
2017-09-04T09:52:05.954Z,20.10
2017-09-04T09:54:32.309Z,20.20
2017-09-04T09:56:58.666Z,20.20
2017-09-04T09:59:25.095Z,20.30
2017-09-04T10:01:51.487Z,20.30
2017-09-04T10:04:17.864Z,20.50
2017-09-04T10:06:44.262Z,20.60
2017-09-04T10:09:10.628Z,20.70
2017-09-04T10:11:37.026Z,20.70
2017-09-04T10:14:03.483Z,20.70
2017-09-04T10:16:29.895Z,20.80
2017-09-04T10:18:56.352Z,20.80
2017-09-04T10:21:22.715Z,20.80
2017-09-04T10:23:49.062Z,20.80
2017-09-04T10:26:15.483Z,20.80
2017-09-04T10:28:41.888Z,20.90
2017-09-04T10:31:08.241Z,20.90
2017-09-04T10:33:34.633Z,20.90
2017-09-04T10:36:01.069Z,20.90
2017-09-04T10:38:27.427Z,20.90
2017-09-04T10:40:53.804Z,21.00
2017-09-04T10:43:20.199Z,21.00
2017-09-04T10:45:46.602Z,21.00
2017-09-04T10:48:13.030Z,21.00
2017-09-04T10:50:39.395Z,20.90
2017-09-04T10:53:05.740Z,20.90
2017-09-04T10:55:32.113Z,21.00
2017-09-04T10:57:58.522Z,21.00
2017-09-04T11:00:24.916Z,21.00
2017-09-04T11:02:51.279Z,21.10
2017-09-04T11:05:17.718Z,21.10
2017-09-04T11:07:44.067Z,21.10
2017-09-04T11:10:10.488Z,21.20
2017-09-04T11:12:36.890Z,21.20
2017-09-04T11:15:03.252Z,21.20
2017-09-04T11:17:29.678Z,21.20
2017-09-04T11:19:57.116Z,21.20
2017-09-04T11:22:23.547Z,21.20
2017-09-04T11:24:49.906Z,21.10
2017-09-04T11:27:16.307Z,21.00
2017-09-04T11:29:42.725Z,21.00
2017-09-04T11:32:09.147Z,20.90
2017-09-04T11:34:36.529Z,20.80
2017-09-04T11:37:02.932Z,20.80
2017-09-04T11:39:29.314Z,20.80
2017-09-04T11:41:55.655Z,20.80
2017-09-04T11:44:22.071Z,20.70
2017-09-04T11:46:48.433Z,20.70
2017-09-04T11:49:14.797Z,20.70
2017-09-04T11:51:41.156Z,20.60
2017-09-04T11:54:07.585Z,20.60
2017-09-04T11:56:33.951Z,20.60
2017-09-04T11:59:00.327Z,20.60
2017-09-04T12:01:26.981Z,20.50
2017-09-04T12:03:53.393Z,20.50
2017-09-04T12:06:19.827Z,20.50
2017-09-04T12:08:46.231Z,20.50
2017-09-04T12:11:12.618Z,20.40
2017-09-04T12:13:38.952Z,20.40
2017-09-04T12:16:05.352Z,20.40
2017-09-04T12:18:31.774Z,20.40
2017-09-04T12:20:58.199Z,20.30
2017-09-04T12:23:24.612Z,20.40
2017-09-04T12:25:50.999Z,20.40
2017-09-04T12:28:17.355Z,20.40
2017-09-04T12:30:43.685Z,20.30
2017-09-04T12:33:10.124Z,20.40
2017-09-04T12:35:36.487Z,20.40
2017-09-04T12:38:02.875Z,20.40
2017-09-04T12:40:29.272Z,20.40
2017-09-04T12:42:55.609Z,20.40
2017-09-04T12:45:22.012Z,20.40
2017-09-04T12:47:48.550Z,20.40
2017-09-04T12:50:14.960Z,20.40
2017-09-04T12:52:41.422Z,20.40
2017-09-04T12:55:07.742Z,20.40
2017-09-04T12:57:34.101Z,20.40
2017-09-04T13:00:00.519Z,20.40
2017-09-04T13:02:26.868Z,20.40
2017-09-04T13:04:53.655Z,20.40
2017-09-04T13:07:20.058Z,20.40
2017-09-04T13:09:46.394Z,20.40
2017-09-04T13:12:16.779Z,20.40
2017-09-04T13:14:49.035Z,20.40
2017-09-04T13:17:21.668Z,20.40
2017-09-04T13:19:54.120Z,20.40
2017-09-04T13:22:26.618Z,20.50
2017-09-04T13:24:56.812Z,20.50
2017-09-04T13:27:29.271Z,20.50
2017-09-04T13:30:01.876Z,20.40
2017-09-04T13:32:34.433Z,20.40
2017-09-04T13:35:07.058Z,20.40
2017-09-04T13:40:35.608Z,20.40
2017-09-04T13:43:08.211Z,20.50
2017-09-04T13:45:52.254Z,20.50
2017-09-04T13:48:21.611Z,20.50
2017-09-04T13:50:54.117Z,20.50
2017-09-04T13:53:26.395Z,20.50
2017-09-04T13:55:52.817Z,20.50
2017-09-04T13:58:23.189Z,20.50
2017-09-04T14:00:55.515Z,20.60
2017-09-04T14:03:28.124Z,20.60
2017-09-04T14:06:00.620Z,20.60
2017-09-04T14:08:27.003Z,20.60
2017-09-04T14:10:59.450Z,20.60
2017-09-04T14:13:29.931Z,20.60
2017-09-04T14:16:02.381Z,20.60
2017-09-04T14:18:28.784Z,20.60
2017-09-04T14:20:55.222Z,20.60
2017-09-04T14:23:21.631Z,20.60
2017-09-04T14:25:48.044Z,20.50
2017-09-04T14:28:14.431Z,20.50
2017-09-04T14:30:40.785Z,20.50
2017-09-04T14:33:07.292Z,20.50
2017-09-04T14:35:33.712Z,20.50
2017-09-04T14:38:00.120Z,20.50
2017-09-04T14:40:27.559Z,20.50
2017-09-04T14:42:58.987Z,20.50
2017-09-04T14:45:26.376Z,20.50
2017-09-04T14:47:52.936Z,20.50
2017-09-04T14:50:19.416Z,20.50
2017-09-04T14:52:45.797Z,20.50
2017-09-04T14:55:12.232Z,20.50
2017-09-04T14:57:38.641Z,20.50
2017-09-04T15:00:05.075Z,20.50
2017-09-04T15:02:31.476Z,20.50
2017-09-04T15:04:57.936Z,20.50
2017-09-04T15:07:24.379Z,20.50
2017-09-04T15:09:50.904Z,20.50
2017-09-04T15:12:17.343Z,20.50
2017-09-04T15:14:43.713Z,20.50
2017-09-04T15:17:10.177Z,20.50
2017-09-04T15:19:36.551Z,20.50
2017-09-04T15:22:02.943Z,20.50
2017-09-04T15:24:29.301Z,20.50
2017-09-04T15:26:55.719Z,20.50
2017-09-04T15:29:22.156Z,20.50
2017-09-04T15:31:48.576Z,20.40
2017-09-04T15:34:14.952Z,20.40
2017-09-04T15:36:41.453Z,20.40
2017-09-04T15:39:07.840Z,20.50
2017-09-04T15:41:34.178Z,20.40
2017-09-04T15:44:00.597Z,20.40
2017-09-04T15:46:26.964Z,20.40
2017-09-04T15:48:53.975Z,20.40
2017-09-04T15:51:20.424Z,20.40
2017-09-04T15:53:46.843Z,20.40
2017-09-04T15:56:20.190Z,20.40
2017-09-04T15:58:46.572Z,20.40
2017-09-04T16:01:12.944Z,20.40
2017-09-04T16:03:39.341Z,20.40
2017-09-04T16:09:04.258Z,20.40
2017-09-04T16:11:34.508Z,20.30
2017-09-04T16:14:00.974Z,20.40
2017-09-04T16:16:34.338Z,20.40
2017-09-04T16:19:03.697Z,20.40
2017-09-04T16:24:30.623Z,20.40
2017-09-04T16:29:53.601Z,20.30
2017-09-04T16:32:35.705Z,20.30
2017-09-04T16:35:03.124Z,20.30
2017-09-04T16:37:39.460Z,20.30
2017-09-04T16:40:05.870Z,20.30
2017-09-04T16:42:36.154Z,20.30
2017-09-04T16:45:03.543Z,20.30
2017-09-04T16:47:35.920Z,20.20
2017-09-04T16:50:08.381Z,20.20
2017-09-04T16:52:37.650Z,20.20
2017-09-04T16:55:04.015Z,20.20
2017-09-04T16:57:32.272Z,20.20
2017-09-04T16:59:58.653Z,20.10
2017-09-04T17:02:25.060Z,20.10
2017-09-04T17:04:51.460Z,20.10
2017-09-04T17:07:17.925Z,20.10
2017-09-04T17:12:43.011Z,20.00
2017-09-04T17:15:11.302Z,20.00
2017-09-04T17:17:53.435Z,19.90
2017-09-04T17:23:18.482Z,19.90
2017-09-04T17:25:44.840Z,19.90
2017-09-04T17:28:11.195Z,19.80
2017-09-04T17:30:37.630Z,19.80
2017-09-04T17:33:04.011Z,19.80
2017-09-04T17:35:31.271Z,19.80
2017-09-04T17:37:57.690Z,19.80
2017-09-04T17:40:24.055Z,19.80
2017-09-04T17:42:50.438Z,19.70
2017-09-04T17:45:16.974Z,19.70
2017-09-04T17:47:43.512Z,19.70
2017-09-04T17:50:09.871Z,19.60
2017-09-04T17:52:36.286Z,19.60
2017-09-04T17:55:02.859Z,19.60
2017-09-04T17:57:29.378Z,19.50
2017-09-04T17:59:55.808Z,19.50
2017-09-04T18:02:22.212Z,19.50
2017-09-04T18:04:48.685Z,19.40
2017-09-04T18:07:16.111Z,19.40
2017-09-04T18:09:42.463Z,19.40
2017-09-04T18:12:08.848Z,19.40
2017-09-04T18:14:35.190Z,19.30
2017-09-04T18:17:01.648Z,19.30
2017-09-04T18:19:28.024Z,19.30
2017-09-04T18:21:54.455Z,19.20
2017-09-04T18:24:20.859Z,19.20
2017-09-04T18:26:47.223Z,19.20
2017-09-04T18:29:14.736Z,19.20
2017-09-04T18:31:41.165Z,19.10
2017-09-04T18:34:07.583Z,19.10
2017-09-04T18:36:33.987Z,19.10
2017-09-04T18:39:00.316Z,19.10
2017-09-04T18:41:26.749Z,19.00
2017-09-04T18:43:53.147Z,19.00
2017-09-04T18:46:19.577Z,19.00
2017-09-04T18:48:45.949Z,19.00
2017-09-04T18:51:12.318Z,19.00
2017-09-04T18:53:38.723Z,19.00
2017-09-04T18:56:05.115Z,19.00
2017-09-04T18:58:31.463Z,19.00
2017-09-04T19:00:57.888Z,18.90
2017-09-04T19:03:24.207Z,19.00
2017-09-04T19:05:50.594Z,18.90
2017-09-04T19:08:16.923Z,18.90
2017-09-04T19:10:43.334Z,18.90
2017-09-04T19:13:09.715Z,18.90
2017-09-04T19:15:36.176Z,18.90
2017-09-04T19:18:02.562Z,18.90
2017-09-04T19:20:28.933Z,18.90
2017-09-04T19:22:55.276Z,18.90
2017-09-04T19:25:21.684Z,18.80
2017-09-04T19:27:48.072Z,18.80
2017-09-04T19:30:14.486Z,18.80
2017-09-04T19:32:40.948Z,18.80
2017-09-04T19:35:07.512Z,18.80
2017-09-04T19:37:33.965Z,18.80
2017-09-04T19:40:00.360Z,18.80
2017-09-04T19:42:26.787Z,18.70
2017-09-04T19:44:53.253Z,18.70
2017-09-04T19:47:19.628Z,18.70
2017-09-04T19:49:45.951Z,18.70
2017-09-04T19:52:12.480Z,18.70
2017-09-04T19:54:39.113Z,18.70
2017-09-04T19:57:05.513Z,18.70
2017-09-04T19:59:32.114Z,18.70
2017-09-04T20:01:58.518Z,18.70
2017-09-04T20:04:25.109Z,18.70
2017-09-04T20:06:51.480Z,18.60
2017-09-04T20:09:17.896Z,18.60
2017-09-04T20:11:44.290Z,18.60
2017-09-04T20:14:10.882Z,18.60
2017-09-04T20:16:37.280Z,18.60
2017-09-04T20:19:03.665Z,18.60
2017-09-04T20:21:30.089Z,18.60
2017-09-04T20:23:56.456Z,18.60
2017-09-04T20:26:22.993Z,18.60
2017-09-04T20:28:49.514Z,18.60
2017-09-04T20:31:15.842Z,18.50
2017-09-04T20:33:42.256Z,18.50
2017-09-04T20:36:08.689Z,18.50
2017-09-04T20:38:35.040Z,18.50
2017-09-04T20:41:01.441Z,18.50
2017-09-04T20:43:28.027Z,18.50
2017-09-04T20:45:54.372Z,18.50
2017-09-04T20:48:20.792Z,18.50
2017-09-04T20:50:47.295Z,18.50
2017-09-04T20:53:13.636Z,18.50
2017-09-04T20:55:40.003Z,18.50
2017-09-04T20:58:06.623Z,18.50
2017-09-04T21:00:33.454Z,18.50
2017-09-04T21:03:00.024Z,18.50
2017-09-04T21:05:26.493Z,18.50
2017-09-04T21:07:52.932Z,18.50
2017-09-04T21:10:19.318Z,18.40
2017-09-04T21:12:45.703Z,18.40
2017-09-04T21:15:12.106Z,18.40
2017-09-04T21:17:38.873Z,18.40
2017-09-04T21:20:05.465Z,18.40
2017-09-04T21:22:31.855Z,18.40
2017-09-04T21:24:58.271Z,18.40
2017-09-04T21:27:24.848Z,18.40
2017-09-04T21:29:51.279Z,18.40
2017-09-04T21:32:17.885Z,18.40
2017-09-04T21:34:44.268Z,18.40
2017-09-04T21:37:10.666Z,18.40
2017-09-04T21:39:37.066Z,18.30
2017-09-04T21:42:03.463Z,18.40
2017-09-04T21:44:29.856Z,18.40
2017-09-04T21:46:56.204Z,18.30
2017-09-04T21:49:22.623Z,18.30
2017-09-04T21:51:48.946Z,18.30
2017-09-04T21:54:15.326Z,18.30
2017-09-04T21:56:41.692Z,18.30
2017-09-04T21:59:08.096Z,18.30
2017-09-04T22:01:34.496Z,18.30
2017-09-04T22:04:00.865Z,18.30
2017-09-04T22:06:27.248Z,18.30
2017-09-04T22:08:53.622Z,18.30
2017-09-04T22:11:20.012Z,18.30
2017-09-04T22:13:46.335Z,18.30
2017-09-04T22:16:12.704Z,18.30
2017-09-04T22:18:39.063Z,18.30
2017-09-04T22:21:05.419Z,18.30
2017-09-04T22:23:31.761Z,18.30
2017-09-04T22:25:58.187Z,18.30
2017-09-04T22:28:24.569Z,18.30
2017-09-04T22:30:50.961Z,18.30
2017-09-04T22:33:17.348Z,18.30
2017-09-04T22:35:43.745Z,18.30
2017-09-04T22:38:10.071Z,18.30
2017-09-04T22:40:36.429Z,18.30
2017-09-04T22:43:02.851Z,18.30
2017-09-04T22:45:29.284Z,18.30
2017-09-04T22:47:55.679Z,18.30
2017-09-04T22:50:22.029Z,18.30
2017-09-04T22:52:48.386Z,18.30
2017-09-04T22:55:14.816Z,18.30
2017-09-04T22:57:41.218Z,18.30
2017-09-04T23:00:07.611Z,18.30
2017-09-04T23:02:34.047Z,18.30
2017-09-04T23:05:00.426Z,18.30
2017-09-04T23:07:26.833Z,18.30
2017-09-04T23:09:53.179Z,18.30
2017-09-04T23:12:19.591Z,18.30
2017-09-04T23:14:45.949Z,18.30
2017-09-04T23:17:12.370Z,18.30
2017-09-04T23:19:38.747Z,18.30
2017-09-04T23:22:05.163Z,18.20
2017-09-04T23:24:31.576Z,18.20
2017-09-04T23:26:57.985Z,18.20
2017-09-04T23:29:24.320Z,18.20
2017-09-04T23:31:50.726Z,18.10
2017-09-04T23:34:17.066Z,18.10
2017-09-04T23:36:43.518Z,18.10
2017-09-04T23:39:09.907Z,18.10
2017-09-04T23:41:36.367Z,18.00
2017-09-04T23:44:02.781Z,18.00
2017-09-04T23:46:29.124Z,18.00
2017-09-04T23:48:55.432Z,18.00
2017-09-04T23:51:21.799Z,17.90
2017-09-04T23:53:48.148Z,17.90
2017-09-04T23:56:14.544Z,17.90
2017-09-04T23:58:40.927Z,17.90
